sensor_id;sensor_type;location;lat;lon;timestamp;P1;durP1;ratioP1;P2;durP2;ratioP2
78169;SDS011;67412;49.892;14.490;2023-11-19T00:01:04;20.15;;;8.20;;
78169;SDS011;67412;49.892;14.490;2023-11-19T00:03:30;18.30;;;7.10;;
78169;SDS011;67412;49.892;14.490;2023-11-19T00:05:55;18.55;;;6.88;;
78169;SDS011;67412;49.892;14.490;2023-11-19T00:08:21;15.98;;;6.25;;
78169;SDS011;67412;49.892;14.490;2023-11-19T00:10:46;14.45;;;6.00;;
78169;SDS011;67412;49.892;14.490;2023-11-19T00:13:12;12.25;;;4.72;;
78169;SDS011;67412;49.892;14.490;2023-11-19T00:15:37;11.50;;;4.75;;
78169;SDS011;67412;49.892;14.490;2023-11-19T00:18:02;12.05;;;5.47;;
78169;SDS011;67412;49.892;14.490;2023-11-19T00:20:29;12.15;;;4.68;;
78169;SDS011;67412;49.892;14.490;2023-11-19T00:22:55;15.65;;;5.18;;
78169;SDS011;67412;49.892;14.490;2023-11-19T00:25:20;13.15;;;4.53;;
78169;SDS011;67412;49.892;14.490;2023-11-19T00:27:49;12.57;;;5.13;;
78169;SDS011;67412;49.892;14.490;2023-11-19T00:30:16;13.85;;;4.85;;
78169;SDS011;67412;49.892;14.490;2023-11-19T00:32:42;13.30;;;5.35;;
78169;SDS011;67412;49.892;14.490;2023-11-19T00:35:08;14.30;;;4.63;;
78169;SDS011;67412;49.892;14.490;2023-11-19T00:37:35;13.65;;;4.63;;
78169;SDS011;67412;49.892;14.490;2023-11-19T00:40:00;10.75;;;3.92;;
78169;SDS011;67412;49.892;14.490;2023-11-19T00:42:26;11.45;;;4.55;;
78169;SDS011;67412;49.892;14.490;2023-11-19T00:44:51;14.45;;;5.70;;
78169;SDS011;67412;49.892;14.490;2023-11-19T00:47:17;17.75;;;5.65;;
78169;SDS011;67412;49.892;14.490;2023-11-19T00:49:45;14.52;;;6.00;;
78169;SDS011;67412;49.892;14.490;2023-11-19T00:52:14;14.15;;;6.25;;
78169;SDS011;67412;49.892;14.490;2023-11-19T00:54:40;16.23;;;6.53;;
78169;SDS011;67412;49.892;14.490;2023-11-19T00:57:05;15.35;;;6.30;;
78169;SDS011;67412;49.892;14.490;2023-11-19T00:59:30;17.05;;;6.85;;
78169;SDS011;67412;49.892;14.490;2023-11-19T01:01:56;17.45;;;7.10;;
78169;SDS011;67412;49.892;14.490;2023-11-19T01:04:21;17.42;;;6.72;;
78169;SDS011;67412;49.892;14.490;2023-11-19T01:06:47;15.20;;;6.88;;
78169;SDS011;67412;49.892;14.490;2023-11-19T01:09:12;17.45;;;5.88;;
78169;SDS011;67412;49.892;14.490;2023-11-19T01:11:37;19.15;;;6.55;;
78169;SDS011;67412;49.892;14.490;2023-11-19T01:14:04;14.85;;;5.95;;
78169;SDS011;67412;49.892;14.490;2023-11-19T01:16:29;15.70;;;5.82;;
78169;SDS011;67412;49.892;14.490;2023-11-19T01:18:55;15.98;;;6.50;;
78169;SDS011;67412;49.892;14.490;2023-11-19T01:21:21;13.52;;;4.95;;
78169;SDS011;67412;49.892;14.490;2023-11-19T01:23:47;15.10;;;6.00;;
78169;SDS011;67412;49.892;14.490;2023-11-19T01:26:12;15.20;;;5.63;;
78169;SDS011;67412;49.892;14.490;2023-11-19T01:28:38;17.98;;;6.00;;
78169;SDS011;67412;49.892;14.490;2023-11-19T01:31:04;14.85;;;5.88;;
78169;SDS011;67412;49.892;14.490;2023-11-19T01:33:30;16.98;;;5.63;;
78169;SDS011;67412;49.892;14.490;2023-11-19T01:35:56;13.82;;;5.70;;
78169;SDS011;67412;49.892;14.490;2023-11-19T01:38:23;14.02;;;5.72;;
78169;SDS011;67412;49.892;14.490;2023-11-19T01:40:49;14.82;;;5.63;;
78169;SDS011;67412;49.892;14.490;2023-11-19T01:43:30;13.23;;;5.18;;
78169;SDS011;67412;49.892;14.490;2023-11-19T01:46:00;12.45;;;5.03;;
78169;SDS011;67412;49.892;14.490;2023-11-19T01:48:27;15.20;;;5.50;;
78169;SDS011;67412;49.892;14.490;2023-11-19T01:50:52;15.10;;;6.15;;
78169;SDS011;67412;49.892;14.490;2023-11-19T01:53:18;13.23;;;5.40;;
78169;SDS011;67412;49.892;14.490;2023-11-19T01:55:44;12.27;;;4.93;;
78169;SDS011;67412;49.892;14.490;2023-11-19T01:58:12;13.93;;;5.55;;
78169;SDS011;67412;49.892;14.490;2023-11-19T02:00:37;14.07;;;5.38;;
78169;SDS011;67412;49.892;14.490;2023-11-19T02:03:03;12.48;;;5.20;;
78169;SDS011;67412;49.892;14.490;2023-11-19T02:05:33;15.73;;;5.35;;
78169;SDS011;67412;49.892;14.490;2023-11-19T02:07:58;14.70;;;5.20;;
78169;SDS011;67412;49.892;14.490;2023-11-19T02:10:24;13.85;;;4.75;;
78169;SDS011;67412;49.892;14.490;2023-11-19T02:12:50;14.00;;;4.95;;
78169;SDS011;67412;49.892;14.490;2023-11-19T02:15:16;13.80;;;4.50;;
78169;SDS011;67412;49.892;14.490;2023-11-19T02:17:44;12.02;;;4.72;;
78169;SDS011;67412;49.892;14.490;2023-11-19T02:20:09;10.43;;;4.40;;
78169;SDS011;67412;49.892;14.490;2023-11-19T02:22:37;11.05;;;4.65;;
78169;SDS011;67412;49.892;14.490;2023-11-19T02:25:12;13.60;;;4.00;;
78169;SDS011;67412;49.892;14.490;2023-11-19T02:30:16;10.93;;;4.05;;
78169;SDS011;67412;49.892;14.490;2023-11-19T02:32:41;11.32;;;4.25;;
78169;SDS011;67412;49.892;14.490;2023-11-19T02:35:07;11.60;;;3.78;;
78169;SDS011;67412;49.892;14.490;2023-11-19T02:37:33;10.40;;;4.60;;
78169;SDS011;67412;49.892;14.490;2023-11-19T02:39:59;11.73;;;4.35;;
78169;SDS011;67412;49.892;14.490;2023-11-19T02:42:34;9.38;;;3.83;;
78169;SDS011;67412;49.892;14.490;2023-11-19T02:45:00;11.50;;;3.70;;
78169;SDS011;67412;49.892;14.490;2023-11-19T02:47:27;9.45;;;3.78;;
78169;SDS011;67412;49.892;14.490;2023-11-19T02:49:55;13.32;;;4.18;;
78169;SDS011;67412;49.892;14.490;2023-11-19T02:52:20;9.20;;;3.80;;
78169;SDS011;67412;49.892;14.490;2023-11-19T02:54:46;9.55;;;3.65;;
78169;SDS011;67412;49.892;14.490;2023-11-19T02:57:11;10.40;;;3.53;;
78169;SDS011;67412;49.892;14.490;2023-11-19T02:59:38;10.27;;;3.95;;
78169;SDS011;67412;49.892;14.490;2023-11-19T03:02:06;8.88;;;3.33;;
78169;SDS011;67412;49.892;14.490;2023-11-19T03:04:35;9.13;;;3.50;;
78169;SDS011;67412;49.892;14.490;2023-11-19T03:07:00;8.30;;;3.50;;
78169;SDS011;67412;49.892;14.490;2023-11-19T03:09:25;7.40;;;3.22;;
78169;SDS011;67412;49.892;14.490;2023-11-19T03:11:50;9.95;;;3.75;;
78169;SDS011;67412;49.892;14.490;2023-11-19T03:14:16;8.50;;;3.50;;
78169;SDS011;67412;49.892;14.490;2023-11-19T03:16:44;9.52;;;3.20;;
78169;SDS011;67412;49.892;14.490;2023-11-19T03:19:11;8.40;;;3.33;;
78169;SDS011;67412;49.892;14.490;2023-11-19T03:21:36;9.23;;;3.58;;
78169;SDS011;67412;49.892;14.490;2023-11-19T03:24:02;8.07;;;3.60;;
78169;SDS011;67412;49.892;14.490;2023-11-19T03:26:27;9.18;;;3.17;;
78169;SDS011;67412;49.892;14.490;2023-11-19T03:28:53;6.95;;;2.80;;
78169;SDS011;67412;49.892;14.490;2023-11-19T03:31:19;8.60;;;2.67;;
78169;SDS011;67412;49.892;14.490;2023-11-19T03:33:45;9.60;;;3.13;;
78169;SDS011;67412;49.892;14.490;2023-11-19T03:36:10;8.77;;;3.03;;
78169;SDS011;67412;49.892;14.490;2023-11-19T03:38:36;7.63;;;2.83;;
78169;SDS011;67412;49.892;14.490;2023-11-19T03:41:07;7.38;;;3.05;;
78169;SDS011;67412;49.892;14.490;2023-11-19T03:43:35;6.00;;;2.33;;
78169;SDS011;67412;49.892;14.490;2023-11-19T03:46:00;9.10;;;3.13;;
78169;SDS011;67412;49.892;14.490;2023-11-19T03:48:26;9.35;;;2.97;;
78169;SDS011;67412;49.892;14.490;2023-11-19T03:50:51;7.95;;;2.90;;
78169;SDS011;67412;49.892;14.490;2023-11-19T03:53:16;7.20;;;2.78;;
78169;SDS011;67412;49.892;14.490;2023-11-19T03:55:43;6.82;;;2.50;;
78169;SDS011;67412;49.892;14.490;2023-11-19T03:58:08;7.40;;;2.45;;
78169;SDS011;67412;49.892;14.490;2023-11-19T04:00:34;7.93;;;2.70;;
78169;SDS011;67412;49.892;14.490;2023-11-19T04:02:59;7.00;;;2.50;;
78169;SDS011;67412;49.892;14.490;2023-11-19T04:05:25;7.55;;;2.60;;
78169;SDS011;67412;49.892;14.490;2023-11-19T04:07:50;9.00;;;2.72;;
78169;SDS011;67412;49.892;14.490;2023-11-19T04:10:16;8.43;;;3.33;;
78169;SDS011;67412;49.892;14.490;2023-11-19T04:12:42;8.68;;;2.80;;
78169;SDS011;67412;49.892;14.490;2023-11-19T04:15:07;7.32;;;2.75;;
78169;SDS011;67412;49.892;14.490;2023-11-19T04:17:33;6.50;;;2.50;;
78169;SDS011;67412;49.892;14.490;2023-11-19T04:19:59;7.47;;;2.42;;
78169;SDS011;67412;49.892;14.490;2023-11-19T04:22:25;8.38;;;2.72;;
78169;SDS011;67412;49.892;14.490;2023-11-19T04:24:51;8.10;;;2.97;;
78169;SDS011;67412;49.892;14.490;2023-11-19T04:27:16;7.80;;;2.53;;
78169;SDS011;67412;49.892;14.490;2023-11-19T04:29:41;7.90;;;2.70;;
78169;SDS011;67412;49.892;14.490;2023-11-19T04:32:07;8.50;;;2.85;;
78169;SDS011;67412;49.892;14.490;2023-11-19T04:34:32;8.15;;;2.63;;
78169;SDS011;67412;49.892;14.490;2023-11-19T04:36:58;8.02;;;2.50;;
78169;SDS011;67412;49.892;14.490;2023-11-19T04:39:27;8.07;;;3.00;;
78169;SDS011;67412;49.892;14.490;2023-11-19T04:41:52;8.30;;;3.08;;
78169;SDS011;67412;49.892;14.490;2023-11-19T04:44:18;7.25;;;2.58;;
78169;SDS011;67412;49.892;14.490;2023-11-19T04:46:43;8.02;;;2.90;;
78169;SDS011;67412;49.892;14.490;2023-11-19T04:49:09;8.52;;;2.92;;
78169;SDS011;67412;49.892;14.490;2023-11-19T04:51:41;6.78;;;2.45;;
78169;SDS011;67412;49.892;14.490;2023-11-19T04:54:08;8.00;;;3.00;;
78169;SDS011;67412;49.892;14.490;2023-11-19T04:56:34;7.63;;;2.50;;
78169;SDS011;67412;49.892;14.490;2023-11-19T04:59:01;8.00;;;2.90;;
78169;SDS011;67412;49.892;14.490;2023-11-19T05:01:27;8.05;;;2.78;;
78169;SDS011;67412;49.892;14.490;2023-11-19T05:03:52;6.95;;;2.67;;
78169;SDS011;67412;49.892;14.490;2023-11-19T05:06:18;9.55;;;3.15;;
78169;SDS011;67412;49.892;14.490;2023-11-19T05:08:43;8.55;;;2.70;;
78169;SDS011;67412;49.892;14.490;2023-11-19T05:11:09;8.55;;;2.92;;
78169;SDS011;67412;49.892;14.490;2023-11-19T05:13:37;10.60;;;3.22;;
78169;SDS011;67412;49.892;14.490;2023-11-19T05:16:02;8.82;;;2.90;;
78169;SDS011;67412;49.892;14.490;2023-11-19T05:18:28;7.07;;;2.70;;
78169;SDS011;67412;49.892;14.490;2023-11-19T05:20:54;7.80;;;2.72;;
78169;SDS011;67412;49.892;14.490;2023-11-19T05:23:19;9.35;;;3.45;;
78169;SDS011;67412;49.892;14.490;2023-11-19T05:25:45;8.30;;;2.95;;
78169;SDS011;67412;49.892;14.490;2023-11-19T05:28:10;7.00;;;2.47;;
78169;SDS011;67412;49.892;14.490;2023-11-19T05:30:36;10.73;;;2.97;;
78169;SDS011;67412;49.892;14.490;2023-11-19T05:33:01;7.63;;;2.78;;
78169;SDS011;67412;49.892;14.490;2023-11-19T05:35:26;9.48;;;3.42;;
78169;SDS011;67412;49.892;14.490;2023-11-19T05:37:52;8.48;;;3.00;;
78169;SDS011;67412;49.892;14.490;2023-11-19T05:40:18;7.82;;;2.67;;
78169;SDS011;67412;49.892;14.490;2023-11-19T05:42:45;7.63;;;2.78;;
78169;SDS011;67412;49.892;14.490;2023-11-19T05:45:11;7.82;;;2.35;;
78169;SDS011;67412;49.892;14.490;2023-11-19T05:47:37;6.82;;;2.40;;
78169;SDS011;67412;49.892;14.490;2023-11-19T05:50:02;7.88;;;2.78;;
78169;SDS011;67412;49.892;14.490;2023-11-19T05:52:28;6.15;;;2.53;;
78169;SDS011;67412;49.892;14.490;2023-11-19T05:54:58;7.38;;;2.58;;
78169;SDS011;67412;49.892;14.490;2023-11-19T05:57:24;7.80;;;3.03;;
78169;SDS011;67412;49.892;14.490;2023-11-19T05:59:50;7.90;;;2.53;;
78169;SDS011;67412;49.892;14.490;2023-11-19T06:02:15;8.38;;;2.58;;
78169;SDS011;67412;49.892;14.490;2023-11-19T06:04:41;9.52;;;2.50;;
78169;SDS011;67412;49.892;14.490;2023-11-19T06:07:09;7.60;;;2.40;;
78169;SDS011;67412;49.892;14.490;2023-11-19T06:09:34;7.50;;;2.75;;
78169;SDS011;67412;49.892;14.490;2023-11-19T06:12:00;6.63;;;2.30;;
78169;SDS011;67412;49.892;14.490;2023-11-19T06:14:27;7.68;;;2.67;;
78169;SDS011;67412;49.892;14.490;2023-11-19T06:16:52;7.10;;;2.35;;
78169;SDS011;67412;49.892;14.490;2023-11-19T06:19:18;6.53;;;2.60;;
78169;SDS011;67412;49.892;14.490;2023-11-19T06:21:43;7.40;;;2.25;;
78169;SDS011;67412;49.892;14.490;2023-11-19T06:24:08;5.97;;;2.42;;
78169;SDS011;67412;49.892;14.490;2023-11-19T06:26:34;5.68;;;2.00;;
78169;SDS011;67412;49.892;14.490;2023-11-19T06:28:59;5.82;;;2.13;;
78169;SDS011;67412;49.892;14.490;2023-11-19T06:31:25;7.70;;;2.50;;
78169;SDS011;67412;49.892;14.490;2023-11-19T06:33:50;6.55;;;2.45;;
78169;SDS011;67412;49.892;14.490;2023-11-19T06:36:16;6.82;;;2.55;;
78169;SDS011;67412;49.892;14.490;2023-11-19T06:38:41;6.72;;;2.40;;
78169;SDS011;67412;49.892;14.490;2023-11-19T06:41:07;5.93;;;2.53;;
78169;SDS011;67412;49.892;14.490;2023-11-19T06:43:36;8.68;;;2.80;;
78169;SDS011;67412;49.892;14.490;2023-11-19T06:46:02;5.40;;;2.25;;
78169;SDS011;67412;49.892;14.490;2023-11-19T06:48:30;5.70;;;2.05;;
78169;SDS011;67412;49.892;14.490;2023-11-19T06:50:57;5.18;;;1.73;;
78169;SDS011;67412;49.892;14.490;2023-11-19T06:53:22;5.32;;;1.85;;
78169;SDS011;67412;49.892;14.490;2023-11-19T06:55:47;5.57;;;2.20;;
78169;SDS011;67412;49.892;14.490;2023-11-19T06:58:13;6.03;;;2.20;;
78169;SDS011;67412;49.892;14.490;2023-11-19T07:00:38;5.57;;;2.05;;
78169;SDS011;67412;49.892;14.490;2023-11-19T07:03:03;8.50;;;2.60;;
78169;SDS011;67412;49.892;14.490;2023-11-19T07:07:56;6.22;;;1.88;;
78169;SDS011;67412;49.892;14.490;2023-11-19T07:10:21;5.32;;;1.75;;
78169;SDS011;67412;49.892;14.490;2023-11-19T07:12:46;6.35;;;2.10;;
78169;SDS011;67412;49.892;14.490;2023-11-19T07:15:12;5.80;;;2.17;;
78169;SDS011;67412;49.892;14.490;2023-11-19T07:17:38;5.72;;;1.88;;
78169;SDS011;67412;49.892;14.490;2023-11-19T07:20:05;4.70;;;1.80;;
78169;SDS011;67412;49.892;14.490;2023-11-19T07:22:31;6.10;;;1.90;;
78169;SDS011;67412;49.892;14.490;2023-11-19T07:24:56;6.22;;;2.00;;
78169;SDS011;67412;49.892;14.490;2023-11-19T07:27:22;5.43;;;2.22;;
78169;SDS011;67412;49.892;14.490;2023-11-19T07:29:49;5.82;;;2.20;;
78169;SDS011;67412;49.892;14.490;2023-11-19T07:32:14;5.90;;;1.92;;
78169;SDS011;67412;49.892;14.490;2023-11-19T07:34:39;4.65;;;1.90;;
78169;SDS011;67412;49.892;14.490;2023-11-19T07:37:05;5.50;;;1.98;;
78169;SDS011;67412;49.892;14.490;2023-11-19T07:39:30;5.32;;;1.77;;
78169;SDS011;67412;49.892;14.490;2023-11-19T07:41:55;6.03;;;2.20;;
78169;SDS011;67412;49.892;14.490;2023-11-19T07:44:21;5.50;;;2.05;;
78169;SDS011;67412;49.892;14.490;2023-11-19T07:46:46;4.05;;;1.60;;
78169;SDS011;67412;49.892;14.490;2023-11-19T07:49:12;5.93;;;1.85;;
78169;SDS011;67412;49.892;14.490;2023-11-19T07:51:38;5.07;;;1.75;;
78169;SDS011;67412;49.892;14.490;2023-11-19T07:54:03;5.15;;;1.80;;
78169;SDS011;67412;49.892;14.490;2023-11-19T07:56:29;5.10;;;1.60;;
78169;SDS011;67412;49.892;14.490;2023-11-19T07:58:54;4.97;;;1.90;;
78169;SDS011;67412;49.892;14.490;2023-11-19T08:01:20;5.22;;;2.00;;
78169;SDS011;67412;49.892;14.490;2023-11-19T08:03:45;5.50;;;2.00;;
78169;SDS011;67412;49.892;14.490;2023-11-19T08:06:10;4.85;;;1.55;;
78169;SDS011;67412;49.892;14.490;2023-11-19T08:08:36;4.35;;;1.80;;
78169;SDS011;67412;49.892;14.490;2023-11-19T08:11:03;4.18;;;1.60;;
78169;SDS011;67412;49.892;14.490;2023-11-19T08:13:30;5.05;;;2.03;;
78169;SDS011;67412;49.892;14.490;2023-11-19T08:15:58;4.38;;;1.80;;
78169;SDS011;67412;49.892;14.490;2023-11-19T08:18:23;7.43;;;1.80;;
78169;SDS011;67412;49.892;14.490;2023-11-19T08:20:49;7.50;;;1.90;;
78169;SDS011;67412;49.892;14.490;2023-11-19T08:23:18;4.22;;;1.55;;
78169;SDS011;67412;49.892;14.490;2023-11-19T08:25:43;4.30;;;1.70;;
78169;SDS011;67412;49.892;14.490;2023-11-19T08:28:09;6.28;;;2.35;;
78169;SDS011;67412;49.892;14.490;2023-11-19T08:30:34;5.95;;;1.92;;
78169;SDS011;67412;49.892;14.490;2023-11-19T08:33:00;6.45;;;2.50;;
78169;SDS011;67412;49.892;14.490;2023-11-19T08:35:28;6.00;;;2.33;;
78169;SDS011;67412;49.892;14.490;2023-11-19T08:37:56;5.88;;;2.30;;
78169;SDS011;67412;49.892;14.490;2023-11-19T08:40:22;5.65;;;2.15;;
78169;SDS011;67412;49.892;14.490;2023-11-19T08:42:47;5.65;;;1.92;;
78169;SDS011;67412;49.892;14.490;2023-11-19T08:45:13;5.30;;;2.28;;
78169;SDS011;67412;49.892;14.490;2023-11-19T08:47:38;4.38;;;1.73;;
78169;SDS011;67412;49.892;14.490;2023-11-19T08:50:05;7.20;;;2.30;;
78169;SDS011;67412;49.892;14.490;2023-11-19T08:52:31;6.53;;;2.30;;
78169;SDS011;67412;49.892;14.490;2023-11-19T08:54:56;7.80;;;2.55;;
78169;SDS011;67412;49.892;14.490;2023-11-19T08:57:22;5.35;;;1.90;;
78169;SDS011;67412;49.892;14.490;2023-11-19T08:59:47;4.38;;;1.70;;
78169;SDS011;67412;49.892;14.490;2023-11-19T09:02:12;7.25;;;2.35;;
78169;SDS011;67412;49.892;14.490;2023-11-19T09:04:38;6.10;;;2.10;;
78169;SDS011;67412;49.892;14.490;2023-11-19T09:07:03;4.95;;;1.90;;
78169;SDS011;67412;49.892;14.490;2023-11-19T09:09:29;5.57;;;2.17;;
78169;SDS011;67412;49.892;14.490;2023-11-19T09:11:55;5.82;;;1.85;;
78169;SDS011;67412;49.892;14.490;2023-11-19T09:14:20;5.45;;;2.25;;
78169;SDS011;67412;49.892;14.490;2023-11-19T09:16:50;7.45;;;2.50;;
78169;SDS011;67412;49.892;14.490;2023-11-19T09:19:16;5.68;;;1.98;;
78169;SDS011;67412;49.892;14.490;2023-11-19T09:21:42;4.82;;;1.90;;
78169;SDS011;67412;49.892;14.490;2023-11-19T09:24:07;5.45;;;2.00;;
78169;SDS011;67412;49.892;14.490;2023-11-19T09:26:33;6.03;;;2.05;;
78169;SDS011;67412;49.892;14.490;2023-11-19T09:28:58;4.85;;;1.95;;
78169;SDS011;67412;49.892;14.490;2023-11-19T09:31:23;5.22;;;1.80;;
78169;SDS011;67412;49.892;14.490;2023-11-19T09:33:49;4.70;;;1.85;;
78169;SDS011;67412;49.892;14.490;2023-11-19T09:36:14;5.47;;;2.05;;
78169;SDS011;67412;49.892;14.490;2023-11-19T09:38:41;4.47;;;2.10;;
78169;SDS011;67412;49.892;14.490;2023-11-19T09:41:07;6.50;;;2.08;;
78169;SDS011;67412;49.892;14.490;2023-11-19T09:43:37;6.18;;;2.05;;
78169;SDS011;67412;49.892;14.490;2023-11-19T09:46:04;6.85;;;2.17;;
78169;SDS011;67412;49.892;14.490;2023-11-19T09:48:36;5.30;;;1.75;;
78169;SDS011;67412;49.892;14.490;2023-11-19T09:51:02;4.72;;;1.90;;
78169;SDS011;67412;49.892;14.490;2023-11-19T09:55:55;4.97;;;1.92;;
78169;SDS011;67412;49.892;14.490;2023-11-19T09:58:20;7.20;;;2.08;;
78169;SDS011;67412;49.892;14.490;2023-11-19T10:00:46;5.22;;;1.95;;
78169;SDS011;67412;49.892;14.490;2023-11-19T10:05:38;3.70;;;1.55;;
78169;SDS011;67412;49.892;14.490;2023-11-19T10:08:05;5.60;;;2.17;;
78169;SDS011;67412;49.892;14.490;2023-11-19T10:10:31;5.80;;;2.40;;
78169;SDS011;67412;49.892;14.490;2023-11-19T10:12:56;5.35;;;1.90;;
78169;SDS011;67412;49.892;14.490;2023-11-19T10:15:22;6.20;;;2.60;;
78169;SDS011;67412;49.892;14.490;2023-11-19T10:17:52;6.82;;;1.98;;
78169;SDS011;67412;49.892;14.490;2023-11-19T10:20:20;4.05;;;1.70;;
78169;SDS011;67412;49.892;14.490;2023-11-19T10:22:45;4.93;;;1.92;;
78169;SDS011;67412;49.892;14.490;2023-11-19T10:28:06;6.32;;;2.50;;
78169;SDS011;67412;49.892;14.490;2023-11-19T10:30:31;8.57;;;2.90;;
78169;SDS011;67412;49.892;14.490;2023-11-19T10:33:08;13.68;;;5.40;;
78169;SDS011;67412;49.892;14.490;2023-11-19T10:35:35;11.68;;;4.10;;
78169;SDS011;67412;49.892;14.490;2023-11-19T10:38:15;14.02;;;6.38;;
78169;SDS011;67412;49.892;14.490;2023-11-19T10:40:41;19.73;;;7.95;;
78169;SDS011;67412;49.892;14.490;2023-11-19T10:43:06;18.98;;;8.55;;
78169;SDS011;67412;49.892;14.490;2023-11-19T10:45:35;19.83;;;7.80;;
78169;SDS011;67412;49.892;14.490;2023-11-19T10:48:02;16.50;;;7.15;;
78169;SDS011;67412;49.892;14.490;2023-11-19T10:50:31;12.93;;;7.43;;
78169;SDS011;67412;49.892;14.490;2023-11-19T10:53:04;6.25;;;1.80;;
78169;SDS011;67412;49.892;14.490;2023-11-19T10:55:31;3.90;;;1.40;;
78169;SDS011;67412;49.892;14.490;2023-11-19T10:58:01;4.03;;;1.42;;
78169;SDS011;67412;49.892;14.490;2023-11-19T11:00:29;3.28;;;1.00;;
78169;SDS011;67412;49.892;14.490;2023-11-19T11:03:00;4.38;;;1.40;;
78169;SDS011;67412;49.892;14.490;2023-11-19T11:05:27;4.03;;;1.20;;
78169;SDS011;67412;49.892;14.490;2023-11-19T11:07:57;3.67;;;1.38;;
78169;SDS011;67412;49.892;14.490;2023-11-19T11:10:25;3.75;;;1.10;;
78169;SDS011;67412;49.892;14.490;2023-11-19T11:12:51;5.45;;;1.33;;
78169;SDS011;67412;49.892;14.490;2023-11-19T11:15:22;4.25;;;1.38;;
78169;SDS011;67412;49.892;14.490;2023-11-19T11:17:49;3.22;;;1.20;;
78169;SDS011;67412;49.892;14.490;2023-11-19T11:20:17;3.53;;;1.00;;
78169;SDS011;67412;49.892;14.490;2023-11-19T11:22:50;5.38;;;1.20;;
78169;SDS011;67412;49.892;14.490;2023-11-19T11:28:21;6.63;;;1.20;;
78169;SDS011;67412;49.892;14.490;2023-11-19T11:31:15;3.63;;;0.90;;
78169;SDS011;67412;49.892;14.490;2023-11-19T11:34:00;2.13;;;0.80;;
78169;SDS011;67412;49.892;14.490;2023-11-19T11:36:32;1.88;;;0.82;;
78169;SDS011;67412;49.892;14.490;2023-11-19T11:39:10;4.30;;;1.55;;
78169;SDS011;67412;49.892;14.490;2023-11-19T11:41:36;0.60;;;0.60;;
78169;SDS011;67412;49.892;14.490;2023-11-19T11:44:01;4.22;;;0.98;;
78169;SDS011;67412;49.892;14.490;2023-11-19T11:49:07;3.58;;;1.10;;
78169;SDS011;67412;49.892;14.490;2023-11-19T11:54:14;3.08;;;1.08;;
78169;SDS011;67412;49.892;14.490;2023-11-19T11:59:47;2.25;;;0.77;;
78169;SDS011;67412;49.892;14.490;2023-11-19T12:02:17;2.20;;;0.88;;
78169;SDS011;67412;49.892;14.490;2023-11-19T12:04:46;1.83;;;0.77;;
78169;SDS011;67412;49.892;14.490;2023-11-19T12:09:41;2.05;;;0.85;;
78169;SDS011;67412;49.892;14.490;2023-11-19T12:15:21;4.05;;;1.20;;
78169;SDS011;67412;49.892;14.490;2023-11-19T12:20:03;2.17;;;0.85;;
78169;SDS011;67412;49.892;14.490;2023-11-19T12:22:39;2.85;;;1.00;;
78169;SDS011;67412;49.892;14.490;2023-11-19T12:25:07;2.70;;;0.80;;
78169;SDS011;67412;49.892;14.490;2023-11-19T12:27:34;2.08;;;1.00;;
78169;SDS011;67412;49.892;14.490;2023-11-19T12:30:00;2.47;;;1.02;;
78169;SDS011;67412;49.892;14.490;2023-11-19T12:32:51;3.65;;;0.90;;
78169;SDS011;67412;49.892;14.490;2023-11-19T12:35:15;0.68;;;0.50;;
78169;SDS011;67412;49.892;14.490;2023-11-19T12:37:44;1.88;;;0.80;;
78169;SDS011;67412;49.892;14.490;2023-11-19T12:40:20;1.90;;;0.88;;
78169;SDS011;67412;49.892;14.490;2023-11-19T12:42:47;3.25;;;0.95;;
78169;SDS011;67412;49.892;14.490;2023-11-19T12:45:14;4.03;;;1.50;;
78169;SDS011;67412;49.892;14.490;2023-11-19T12:50:07;2.28;;;0.75;;
78169;SDS011;67412;49.892;14.490;2023-11-19T12:52:34;2.00;;;0.55;;
78169;SDS011;67412;49.892;14.490;2023-11-19T12:55:03;1.60;;;0.75;;
78169;SDS011;67412;49.892;14.490;2023-11-19T12:57:39;1.35;;;0.52;;
78169;SDS011;67412;49.892;14.490;2023-11-19T13:00:06;2.50;;;0.50;;
78169;SDS011;67412;49.892;14.490;2023-11-19T13:02:47;1.52;;;0.70;;
78169;SDS011;67412;49.892;14.490;2023-11-19T13:10:28;1.52;;;0.60;;
78169;SDS011;67412;49.892;14.490;2023-11-19T13:15:33;2.63;;;0.90;;
78169;SDS011;67412;49.892;14.490;2023-11-19T13:18:00;2.45;;;0.80;;
78169;SDS011;67412;49.892;14.490;2023-11-19T13:20:25;1.95;;;0.55;;
78169;SDS011;67412;49.892;14.490;2023-11-19T13:22:57;2.55;;;0.82;;
78169;SDS011;67412;49.892;14.490;2023-11-19T13:25:27;2.35;;;0.70;;
78169;SDS011;67412;49.892;14.490;2023-11-19T13:27:53;2.63;;;1.00;;
78169;SDS011;67412;49.892;14.490;2023-11-19T13:30:20;4.40;;;1.33;;
78169;SDS011;67412;49.892;14.490;2023-11-19T13:32:49;2.90;;;0.80;;
78169;SDS011;67412;49.892;14.490;2023-11-19T13:35:15;2.58;;;0.85;;
78169;SDS011;67412;49.892;14.490;2023-11-19T13:37:42;4.93;;;1.10;;
78169;SDS011;67412;49.892;14.490;2023-11-19T13:40:07;3.33;;;0.95;;
78169;SDS011;67412;49.892;14.490;2023-11-19T13:42:35;3.47;;;0.85;;
78169;SDS011;67412;49.892;14.490;2023-11-19T13:45:07;2.97;;;0.85;;
78169;SDS011;67412;49.892;14.490;2023-11-19T13:47:41;1.25;;;0.73;;
78169;SDS011;67412;49.892;14.490;2023-11-19T13:50:09;3.72;;;1.13;;
78169;SDS011;67412;49.892;14.490;2023-11-19T13:52:39;3.20;;;1.20;;
78169;SDS011;67412;49.892;14.490;2023-11-19T13:55:07;3.70;;;1.00;;
78169;SDS011;67412;49.892;14.490;2023-11-19T13:57:34;3.10;;;1.10;;
78169;SDS011;67412;49.892;14.490;2023-11-19T14:00:07;2.95;;;1.27;;
78169;SDS011;67412;49.892;14.490;2023-11-19T14:02:40;5.53;;;1.70;;
78169;SDS011;67412;49.892;14.490;2023-11-19T14:05:06;1.92;;;0.93;;
78169;SDS011;67412;49.892;14.490;2023-11-19T14:07:32;4.15;;;1.20;;
78169;SDS011;67412;49.892;14.490;2023-11-19T14:09:58;3.65;;;1.10;;
78169;SDS011;67412;49.892;14.490;2023-11-19T14:12:23;4.68;;;1.30;;
78169;SDS011;67412;49.892;14.490;2023-11-19T14:14:49;3.10;;;1.00;;
78169;SDS011;67412;49.892;14.490;2023-11-19T14:17:14;2.00;;;0.77;;
78169;SDS011;67412;49.892;14.490;2023-11-19T14:19:40;2.65;;;0.98;;
78169;SDS011;67412;49.892;14.490;2023-11-19T14:22:07;2.42;;;0.85;;
78169;SDS011;67412;49.892;14.490;2023-11-19T14:24:33;3.60;;;0.77;;
78169;SDS011;67412;49.892;14.490;2023-11-19T14:26:59;2.38;;;0.80;;
78169;SDS011;67412;49.892;14.490;2023-11-19T14:29:25;1.92;;;0.77;;
78169;SDS011;67412;49.892;14.490;2023-11-19T14:31:51;1.83;;;0.80;;
78169;SDS011;67412;49.892;14.490;2023-11-19T14:34:18;2.60;;;0.93;;
78169;SDS011;67412;49.892;14.490;2023-11-19T14:36:44;2.90;;;1.02;;
78169;SDS011;67412;49.892;14.490;2023-11-19T14:39:09;2.25;;;0.80;;
78169;SDS011;67412;49.892;14.490;2023-11-19T14:41:35;0.95;;;0.52;;
78169;SDS011;67412;49.892;14.490;2023-11-19T14:44:00;2.78;;;0.80;;
78169;SDS011;67412;49.892;14.490;2023-11-19T14:46:26;1.55;;;0.80;;
78169;SDS011;67412;49.892;14.490;2023-11-19T14:48:52;5.18;;;1.40;;
78169;SDS011;67412;49.892;14.490;2023-11-19T14:51:17;3.92;;;1.40;;
78169;SDS011;67412;49.892;14.490;2023-11-19T14:53:43;6.07;;;1.80;;
78169;SDS011;67412;49.892;14.490;2023-11-19T14:56:11;5.35;;;1.38;;
78169;SDS011;67412;49.892;14.490;2023-11-19T14:58:37;6.15;;;1.40;;
78169;SDS011;67412;49.892;14.490;2023-11-19T15:01:03;5.07;;;1.58;;
78169;SDS011;67412;49.892;14.490;2023-11-19T15:03:29;2.17;;;0.95;;
78169;SDS011;67412;49.892;14.490;2023-11-19T15:05:55;4.50;;;1.27;;
78169;SDS011;67412;49.892;14.490;2023-11-19T15:08:21;3.60;;;1.10;;
78169;SDS011;67412;49.892;14.490;2023-11-19T15:10:47;5.28;;;1.33;;